Weather observations for the past three days for
McKinney - McKinney National Airport
Imperial (Metric)
Date Time (cdt) Wind (mph) Vis. (mi.) Weather Sky Cond. Temperature (ºF) Relative Humidity Wind Chill (°F) Heat Index (°F) Pressure Precipitation (in)
Air Dwpt 6 hour altimeter (in) sea level (mb) 1 hr 3 hr 6 hr
Max. Min.
03 13:53 SW 12 G 21 10.00 Fair CLR 81 44.1 27% 80 30.09 1018.8
03 12:53 SW 14 G 23 10.00 Fair CLR 80.1 46 80.1 51.1 30% 79 30.12 1019.9
03 11:53 SW 17 G 23 10.00 Fair CLR 77 46.9 35% 78 30.14 1020.8
03 10:53 SW 10 10.00 Fair CLR 75.9 48 37% 78 30.15 1021.2
03 09:53 W 15 G 22 10.00 Fair CLR 73 46.9 40% 30.15 1021.2
03 08:53 SW 7 10.00 Fair CLR 66.9 48 51% 30.15 1021.0
03 07:53 S 3 10.00 Fair CLR 57.9 51.1 78% 30.15 1020.9
03 06:53 Calm 10.00 Fair CLR 51.1 46.9 59 50 86% 30.13 1020.6
03 05:53 S 3 10.00 Fair CLR 52 46.9 83% 30.12 1020.1
03 04:53 Calm 10.00 Fair CLR 53.1 46.9 80% 30.12 1020.1
03 03:53 Calm 10.00 Fair CLR 51.1 48 89% 30.11 1020.0
03 02:53 Calm 10.00 Fair CLR 54 48 80% 30.12 1020.0
03 01:53 Calm 10.00 Fair CLR 55 48 77% 30.12 1020.3
03 00:53 S 5 10.00 Fair CLR 57 46.9 75 57 69% 30.12 1020.1
02 23:53 S 6 10.00 Fair CLR 57.9 46.9 67% 30.11 1019.8
02 22:53 S 6 10.00 Fair CLR 57.9 48 70% 30.11 1019.9
02 21:53 S 3 10.00 Fair CLR 62.1 48 60% 30.1 1019.5
02 20:53 SW 5 10.00 Fair CLR 70 44.1 39% 30.09 1019.0
02 19:53 SW 6 10.00 Fair CLR 73 42.1 33% 30.08 1018.8
02 18:53 N 5 10.00 Fair CLR 73.9 44.1 75.9 71.1 34% 30.07 1018.7
02 17:53 NW 5 10.00 Fair CLR 75.9 41 29% 77 30.08 1018.9
02 16:53 Vrbl 6 10.00 Fair CLR 75.9 39.9 27% 77 30.09 1019.3
02 15:53 Vrbl 7 10.00 Fair CLR 75 39 27% 77 30.11 1020.0
02 14:53 Vrbl 7 10.00 Fair CLR 73 39 29% 30.13 1020.6
02 13:53 NW 12 10.00 Fair CLR 73 37.9 28% 30.15 1021.2
02 12:53 N 6 10.00 Fair CLR 71.1 36 72 48 28% 30.17 1021.9
02 11:53 N 6 10.00 Fair CLR 70 41 35% 30.19 1022.4
02 10:53 N 7 10.00 Fair CLR 68 37 32% 30.19 1022.5
02 09:53 Vrbl 5 10.00 Fair CLR 64 46 52% 30.18 1022.2
02 08:53 N 5 10.00 Fair CLR 59 48 67% 30.17 1022.1
02 07:53 Calm 10.00 Fair CLR 51.1 48 89% 30.15 1021.5
02 06:53 N 5 10.00 Fair CLR 48 46 55.9 46.9 93% 47 30.12 1020.7
02 05:53 Calm 10.00 Fair CLR 48.9 46 90% 30.11 1020.0
02 04:53 NW 3 10.00 Fair CLR 50 46.9 89% 30.09 1019.5
02 03:53 NW 5 10.00 Fair CLR 51.1 46.9 86% 30.09 1019.3
02 02:53 NW 6 10.00 Fair CLR 53.1 48 83% 30.09 1019.3
02 01:53 NW 3 10.00 Fair CLR 55 48.9 80% 30.09 1019.4
02 00:53 Calm 10.00 Fair CLR 53.1 50 63 53.1 89% 30.09 1019.5
01 23:53 SW 5 10.00 Fair CLR 57 50 78% 30.09 1019.3
01 22:53 Calm 10.00 Fair CLR 57.9 50 75% 30.09 1019.3
01 21:53 Calm 8.00 Mostly Cloudy BKN065 BKN110 60.1 50 70% 30.07 1018.8
01 20:53 Calm 10.00 Partly Cloudy FEW070 SCT120 60.1 50 70% 30.05 1018.1
01 19:53 SE 5 10.00 Overcast OVC110 62.1 50 65% 30.02 1017.1
01 18:53 SE 3 10.00 A Few Clouds FEW060 63 50 66 63 63% 30 1016.1
01 17:53 E 5 10.00 Mostly Cloudy BKN110 64 48 56% 29.98 1015.6
01 16:53 E 5 10.00 Fair CLR 64.9 46.9 52% 29.98 1015.4
01 15:53 E 9 10.00 Overcast OVC100 64.9 46 51% 29.99 1015.9
01 14:53 E 10 G 24 10.00 Mostly Cloudy BKN090 64 44.1 48% 30 1016.1
01 13:53 NE 17 G 30 10.00 Mostly Cloudy BKN085 BKN110 66 46 49% 29.99 1015.6
01 12:53 NE 15 G 22 10.00 Overcast OVC090 64.9 46.9 64.9 55.9 52% 30.02 1016.8
01 11:53 E 12 10.00 Overcast OVC085 62.1 48.9 62% 30.05 1017.8
01 10:53 NE 7 10.00 Mostly Cloudy BKN080 57.9 50 75% 30.06 1018.4
01 09:53 E 9 10.00 Partly Cloudy SCT080 57 46.9 69% 30.06 1018.2
01 08:53 NE 8 10.00 Overcast OVC080 57 48 72% 30.04 1017.7
01 07:53 NE 7 10.00 Overcast OVC075 55.9 48 75% 30.04 1017.7
01 06:53 NE 6 10.00 Overcast OVC065 55.9 51.1 57.9 55.9 84% 30 1016.4
01 05:53 N 8 10.00 Overcast SCT060 OVC075 55.9 52 87% 29.99 1016.0
01 04:53 NE 6 10.00 Overcast OVC050 57 53.1 87% 30 1016.4
01 03:53 NE 6 10.00 Overcast OVC050 57 53.1 87% 29.98 1015.5
01 02:53 NE 3 10.00 Overcast OVC050 57 53.1 87% 30 1016.3
01 01:53 E 5 10.00 Overcast OVC043 57 54 90% 30.02 1016.8
01 00:53 NE 5 10.00 Overcast OVC042 57.9 54 62.1 57.9 87% 30.03 1017.3 0.01 0.01
30 23:53 NE 6 10.00 Light Rain OVC038 57.9 53.1 84% 30.02 1016.9
30 22:53 E 9 10.00 Light Rain OVC035 59 52 78% 30.02 1016.9
30 21:53 E 6 10.00 Overcast OVC035 60.1 54 80% 29.99 1015.8
30 20:53 NE 5 10.00 Overcast OVC040 60.1 54 80% 29.98 1015.4
30 19:53 E 5 10.00 Overcast OVC047 62.1 52 70% 29.95 1014.7
30 18:53 E 9 10.00 Overcast OVC050 62.1 52 63 62.1 70% 29.92 1013.5
30 17:53 E 12 G 18 10.00 Overcast OVC055 63 51.1 65% 29.93 1013.7
30 16:53 E 7 10.00 Overcast OVC050 62.1 52 70% 29.94 1014.2
30 15:53 E 8 10.00 Mostly Cloudy BKN050 63 52 68% 29.93 1013.8
30 14:53 NE 8 10.00 Overcast OVC038 62.1 52 70% 29.96 1014.7
Date Time (cdt) Wind (mph) Vis. (mi.) Weather Sky Cond. Air Dwpt Max. Min. Relative Humidity Wind Chill (°F) Heat Index (°F) altimeter (in) sea level (mb) 1 hr 3 hr 6 hr
6 hour
Temperature (ºF) Pressure Precipitation (in)